Las Vegas Municipal Airport
KLVS : now visible

Airfield :











YOU CAN JOIN US ON...

 
LOGIN :

Register | Disclaimer

   EN    FR    IT 

 









Legend :    VFR   Marginal VFR   IFR   Intensive IFR   Very Intensive IFR
Visi :
Ceiling :
>= 8 km
>= 3000ft
5 to 8 km
1000 to 3000 ft
1500m to 5 km
500 to 1000 ft
800 to 1500m
200 to 500 ft
< 800m
< 200 ft
Symbols :   Thunderstorms  Fog  Heavy snow  Heavy precipitations  Wind > 20 kt






- Airport Elevation : 6877 ft


KLVS - Las Vegas Municipal

CURRENT METAR :
  • 242153Z AUTO 26024G31KT 10SM CLR 21/M06 A2990 RMK AO2 PK WND 25031/2125 SLP056 T02111061

EXPIRED METARs :
  • 242053Z AUTO 28017G26KT 10SM CLR 22/M09 A2991 RMK AO2 PK WND 27034/2025 SLP058 T02221094 56018
  • 241953Z AUTO 27021G27KT 10SM CLR 23/M11 A2992 RMK AO2 PK WND 27038/1925 SLP058 T02281106

TAF KLVS
Valid from the 24 at 18:00 until the 25 at 18:00 UTC


241720Z 2418/2518 27024G32KT P6SM SKC
FM241900 27029G40KT P6SM SKC
FM250100 25018G26KT P6SM FEW200
FM251200 22013KT P6SM BKN200
KZAB FIR / North America



MET'MAP, your aeronautical weather chart ! - Copyright ORBIFLY December 2007 - Disclaimer

ORBIFLY MET'MAP TEAM :

Programming & Development : Alexandra Zaïnal
Concept & original design : Baudouin d'Aumeries
Assistance for programming : Marc-Olivier Méhu
Technical & hardware support : Manuel Goepfert

Contact : metmap@orbifly.com




SOURCES & CREDITS :

   NOAA       Earth
Advisory